Terminal Aerodrome Forecast
Issued by NWS

Home | Current Version | Previous Version | Text Only | Print | Product List | Glossary On
Versions: 1 2 3 4 5 6 7 8 9 10 11 12 13 14 15 16 17
000
FTUS42 KMLB 200536
TAFISM
TAF
KISM 200536Z 2006/2106 15004KT P6SM SCT250
     FM201400 10005KT P6SM FEW030 BKN250
     FM201900 12009KT P6SM VCTS SCT050CB BKN200
     FM210100 11004KT P6SM SCT040 SCT150 OVC200=

USA.gov is the U.S. government's official web portal to all federal, state and local government web resources and services.